Time;durP1;ratioP1;P1;durP2;ratioP2;P2;SDS_P1;SDS_P2;PMS_P1;PMS_P2;Temp;Humidity;BMP_temperature;BMP_pressure;BME280_temperature;BME280_humidity;BME280_pressure;Samples;Min_cycle;Max_cycle;Signal;HPM_P1;HPM_P2
2021/06/13 00:00:56;;;;;;;7.70;1.50;;;;;;;13.14;83.92;100356.88;126271;1093;22746;-62
2021/06/13 00:03:27;;;;;;;7.55;1.85;;;;;;;13.14;83.73;100353.33;126324;1093;22761;-62
2021/06/13 00:05:59;;;;;;;6.70;1.70;;;;;;;13.13;83.56;100360.96;126173;1093;22806;-62
2021/06/13 00:08:38;;;;;;;7.83;1.58;;;;;;;13.13;83.76;100360.18;126304;1092;22777;-61
2021/06/13 00:11:10;;;;;;;9.25;1.50;;;;;;;13.12;83.66;100367.81;126322;1093;22761;-61
2021/06/13 00:13:41;;;;;;;8.60;2.05;;;;;;;13.13;83.41;100363.77;126396;1093;27141;-61
2021/06/13 00:16:13;;;;;;;6.55;1.60;;;;;;;13.13;83.47;100369.37;126334;1092;24657;-61
2021/06/13 00:18:45;;;;;;;8.85;1.60;;;;;;;13.13;83.71;100371.39;126435;1091;22825;-61
2021/06/13 00:21:18;;;;;;;7.75;1.60;;;;;;;13.12;83.64;100381.83;126417;1092;26302;-62
2021/06/13 00:23:49;;;;;;;12.75;2.20;;;;;;;13.12;83.78;100369.88;126363;1093;22808;-61
2021/06/13 00:26:21;;;;;;;8.45;1.70;;;;;;;13.12;83.80;100372.67;126401;1093;24180;-61
2021/06/13 00:28:52;;;;;;;10.10;1.80;;;;;;;13.12;83.69;100381.08;126273;1092;26245;-62
2021/06/13 00:31:23;;;;;;;8.18;1.80;;;;;;;13.11;83.62;100385.91;126412;1093;22783;-61
2021/06/13 00:33:55;;;;;;;6.57;1.70;;;;;;;13.11;84.12;100377.50;126521;1092;22720;-61
2021/06/13 00:36:26;;;;;;;8.43;1.83;;;;;;;13.11;84.05;100377.50;127518;1093;28359;-62
2021/06/13 00:38:57;;;;;;;9.10;2.10;;;;;;;13.10;83.86;100384.36;127411;1093;24580;-62
2021/06/13 00:41:28;;;;;;;9.93;2.17;;;;;;;13.10;83.83;100381.55;126279;1092;22803;-62
2021/06/13 00:44:00;;;;;;;7.45;1.85;;;;;;;13.10;84.00;100386.41;126418;1093;22829;-60
2021/06/13 00:46:32;;;;;;;7.70;2.00;;;;;;;13.09;83.67;100388.44;126324;1093;22774;-62
2021/06/13 00:49:03;;;;;;;8.43;2.10;;;;;;;13.08;84.07;100386.88;126407;1093;22753;-60
2021/06/13 00:51:34;;;;;;;16.00;2.05;;;;;;;13.10;84.09;100392.02;126271;1092;27956;-62
2021/06/13 00:54:05;;;;;;;9.50;2.10;;;;;;;13.09;83.68;100394.05;126334;1092;22759;-62
2021/06/13 00:56:37;;;;;;;8.10;2.20;;;;;;;13.08;84.02;100403.70;126306;1092;22771;-61
2021/06/13 00:59:09;;;;;;;14.33;2.70;;;;;;;13.09;83.78;100394.05;126338;1092;22804;-61
2021/06/13 01:01:40;;;;;;;7.60;1.80;;;;;;;13.08;83.62;100398.09;126340;1093;23103;-62
2021/06/13 01:04:11;;;;;;;8.27;2.00;;;;;;;13.07;83.75;100399.38;126341;1093;22774;-62
2021/06/13 01:06:50;;;;;;;10.50;2.40;;;;;;;13.06;83.54;100406.22;126376;1093;25733;-62
2021/06/13 01:09:28;;;;;;;7.20;1.90;;;;;;;13.05;83.78;100403.92;126278;1092;22804;-62
2021/06/13 01:12:05;;;;;;;11.10;2.55;;;;;;;13.04;83.60;100400.34;126262;1093;26314;-62
2021/06/13 01:14:46;;;;;;;7.40;1.80;;;;;;;13.03;83.61;100400.81;126393;1092;22968;-62
2021/06/13 01:17:26;;;;;;;11.17;2.00;;;;;;;13.01;83.67;100398.51;126261;1092;22900;-61
2021/06/13 01:20:09;;;;;;;8.90;2.00;;;;;;;13.00;83.62;100402.56;126222;1093;27220;-62
2021/06/13 01:22:55;;;;;;;11.30;2.05;;;;;;;12.98;83.31;100394.66;126107;1092;22807;-61
2021/06/13 01:25:39;;;;;;;8.30;1.70;;;;;;;12.98;83.56;100396.67;125863;1092;22787;-61
2021/06/13 01:28:28;;;;;;;10.90;1.60;;;;;;;12.95;83.45;100394.88;125750;1093;22771;-61
2021/06/13 01:31:02;;;;;;;8.15;1.80;;;;;;;12.93;83.26;100398.15;125798;1092;22769;-60
2021/06/13 01:33:35;;;;;;;7.07;1.70;;;;;;;12.90;82.97;100393.55;125897;1093;22807;-60
2021/06/13 01:36:09;;;;;;;7.35;1.60;;;;;;;12.89;82.74;100396.84;125697;1093;22781;-60
2021/06/13 01:38:44;;;;;;;8.40;1.93;;;;;;;12.86;82.58;100395.02;125854;1093;26563;-63
2021/06/13 01:41:26;;;;;;;10.40;1.55;;;;;;;12.82;82.76;100394.45;125723;1093;22795;-61
2021/06/13 01:43:59;;;;;;;9.03;1.50;;;;;;;12.78;82.61;100394.67;125753;1093;26528;-59
2021/06/13 01:46:34;;;;;;;9.10;2.55;;;;;;;12.76;82.34;100388.79;125775;1093;24491;-61
2021/06/13 01:49:07;;;;;;;10.43;1.70;;;;;;;12.74;82.51;100388.52;125785;1093;22807;-62
2021/06/13 01:51:39;;;;;;;9.50;1.80;;;;;;;12.71;82.49;100391.50;126039;1093;22800;-61
2021/06/13 01:54:11;;;;;;;7.85;1.70;;;;;;;12.67;82.19;100388.92;126073;1093;27222;-60
2021/06/13 01:56:52;;;;;;;7.30;1.70;;;;;;;12.65;82.24;100399.06;125855;1093;22774;-62
2021/06/13 01:59:24;;;;;;;7.80;1.90;;;;;;;12.61;82.35;100390.88;125675;1093;22834;-61
2021/06/13 02:01:59;;;;;;;7.83;2.20;;;;;;;12.58;82.41;100393.90;125747;1093;25887;-61
2021/06/13 02:04:33;;;;;;;6.63;1.30;;;;;;;12.56;82.55;100404.82;125750;1093;22913;-61
2021/06/13 02:07:06;;;;;;;8.65;1.80;;;;;;;12.51;82.63;100408.30;125848;1093;22800;-61
2021/06/13 02:09:41;;;;;;;7.83;1.60;;;;;;;12.48;82.27;100415.64;125768;1093;22804;-61
2021/06/13 02:12:15;;;;;;;7.50;1.50;;;;;;;12.45;82.33;100418.66;125653;1093;25881;-61
2021/06/13 02:14:48;;;;;;;13.83;2.07;;;;;;;12.42;82.15;100408.41;125725;1093;22827;-61
2021/06/13 02:17:20;;;;;;;13.15;2.00;;;;;;;12.40;82.22;100422.13;125786;1093;26814;-61
2021/06/13 02:19:52;;;;;;;6.63;1.80;;;;;;;12.38;82.20;100413.45;125721;1093;22804;-61
2021/06/13 02:22:25;;;;;;;9.95;1.60;;;;;;;12.34;81.97;100424.86;125769;1093;22854;-60
2021/06/13 02:24:56;;;;;;;7.70;1.50;;;;;;;12.32;81.90;100426.59;125770;1093;22800;-63
2021/06/13 02:27:30;;;;;;;7.85;1.90;;;;;;;12.28;81.50;100431.63;125682;1093;22813;-61
2021/06/13 02:30:02;;;;;;;8.43;1.70;;;;;;;12.24;82.04;100436.66;125855;1093;22800;-61
2021/06/13 02:32:35;;;;;;;10.10;1.85;;;;;;;12.20;81.30;100439.67;125672;1093;22776;-63
2021/06/13 02:35:11;;;;;;;7.40;1.20;;;;;;;12.16;81.92;100445.47;125854;1092;22938;-61
2021/06/13 02:37:44;;;;;;;9.47;1.40;;;;;;;12.12;82.18;100444.88;125758;1093;22773;-62
2021/06/13 02:40:20;;;;;;;10.93;1.73;;;;;;;12.09;82.01;100450.67;125805;1093;22775;-61
2021/06/13 02:42:54;;;;;;;7.77;1.70;;;;;;;12.05;81.86;100453.68;125696;1093;24476;-61
2021/06/13 02:45:25;;;;;;;8.45;2.00;;;;;;;12.02;81.89;100449.03;125867;1093;22783;-60
2021/06/13 02:47:56;;;;;;;8.10;1.65;;;;;;;12.00;81.73;100459.94;125729;1093;24477;-61
2021/06/13 02:50:27;;;;;;;12.55;2.20;;;;;;;12.00;81.77;100464.80;125670;1093;22825;-61
2021/06/13 02:53:06;;;;;;;10.75;1.50;;;;;;;11.98;81.33;100464.50;125879;1093;22801;-60
2021/06/13 02:55:45;;;;;;;9.75;1.55;;;;;;;11.97;81.69;100458.13;125770;1093;22800;-61
2021/06/13 02:58:26;;;;;;;7.15;1.55;;;;;;;11.96;81.95;100464.97;125742;1093;22831;-60
2021/06/13 03:00:58;;;;;;;7.85;1.55;;;;;;;11.96;81.84;100467.77;125629;1093;23411;-62
2021/06/13 03:03:34;;;;;;;9.57;1.50;;;;;;;11.96;81.37;100469.78;125885;1093;23276;-62
2021/06/13 03:06:09;;;;;;;8.30;1.50;;;;;;;11.95;81.77;100473.85;125630;1093;22774;-61
2021/06/13 03:08:43;;;;;;;9.00;1.90;;;;;;;11.93;81.62;100471.55;125852;1093;22807;-60
2021/06/13 03:11:16;;;;;;;8.60;1.60;;;;;;;11.94;81.51;100481.46;125666;1093;22774;-61
2021/06/13 03:13:51;;;;;;;12.23;1.73;;;;;;;11.95;81.56;100473.85;125786;1093;24441;-61
2021/06/13 03:16:23;;;;;;;9.00;1.80;;;;;;;11.95;81.64;100476.65;125816;1093;22804;-61
2021/06/13 03:18:54;;;;;;;10.53;1.40;;;;;;;11.93;81.66;100477.14;125722;1093;22773;-60
2021/06/13 03:21:28;;;;;;;11.83;1.67;;;;;;;11.95;82.15;100482.24;125693;1092;26328;-61
2021/06/13 03:24:00;;;;;;;10.85;1.40;;;;;;;11.95;81.86;100491.42;125772;1093;22803;-62
2021/06/13 03:26:35;;;;;;;6.60;1.60;;;;;;;11.97;81.73;100496.52;125723;1092;22800;-60
2021/06/13 03:29:09;;;;;;;12.95;1.70;;;;;;;11.99;81.66;100502.41;125706;1093;22774;-61
2021/06/13 03:31:41;;;;;;;10.75;1.70;;;;;;;12.00;81.47;100507.52;125631;1093;26528;-61
2021/06/13 03:34:13;;;;;;;11.10;1.80;;;;;;;12.00;81.88;100496.32;125747;1093;22800;-59
2021/06/13 03:36:45;;;;;;;8.85;1.35;;;;;;;12.02;81.58;100505.00;125751;1093;22790;-62
2021/06/13 03:39:18;;;;;;;11.78;1.60;;;;;;;12.04;81.12;100504.54;125775;1093;22793;-63
2021/06/13 03:41:50;;;;;;;12.43;1.50;;;;;;;12.06;80.68;100508.38;125820;1093;22781;-61
2021/06/13 03:44:23;;;;;;;11.20;1.80;;;;;;;12.07;80.89;100509.16;125790;1093;22780;-60
2021/06/13 03:46:57;;;;;;;9.57;1.90;;;;;;;12.08;80.25;100511.46;125841;1093;25880;-63
2021/06/13 03:49:28;;;;;;;10.20;1.40;;;;;;;12.10;80.45;100517.34;125789;1092;26723;-61
2021/06/13 03:52:00;;;;;;;7.95;1.40;;;;;;;12.12;80.58;100522.48;125654;1093;26289;-62
2021/06/13 03:54:32;;;;;;;11.40;1.55;;;;;;;12.12;80.33;100528.83;125810;1093;22817;-61
2021/06/13 03:57:07;;;;;;;9.87;1.93;;;;;;;12.16;80.42;100526.64;125683;1093;22796;-63
2021/06/13 03:59:40;;;;;;;10.03;1.50;;;;;;;12.16;80.21;100523.84;125841;1093;22780;-62
2021/06/13 04:02:13;;;;;;;10.17;2.30;;;;;;;12.17;79.85;100538.58;125609;1093;22803;-60
2021/06/13 04:04:52;;;;;;;11.77;1.57;;;;;;;12.16;79.48;100542.66;125824;1093;22864;-61
2021/06/13 04:07:24;;;;;;;8.65;1.60;;;;;;;12.17;79.17;100536.56;125686;1093;26005;-60
2021/06/13 04:09:56;;;;;;;9.75;1.10;;;;;;;12.19;78.91;100545.25;125712;1092;27282;-61
2021/06/13 04:12:29;;;;;;;9.23;1.20;;;;;;;12.24;78.61;100548.63;125628;1092;22799;-61
2021/06/13 04:15:02;;;;;;;14.20;1.70;;;;;;;12.29;78.52;100551.51;125688;1093;22803;-61
2021/06/13 04:17:35;;;;;;;9.55;1.40;;;;;;;12.34;77.55;100547.27;125691;1093;22800;-61
2021/06/13 04:20:11;;;;;;;8.10;1.20;;;;;;;12.36;77.94;100547.55;125781;1093;22828;-59
2021/06/13 04:22:44;;;;;;;6.65;1.30;;;;;;;12.40;78.23;100548.91;125835;1092;22832;-60
2021/06/13 04:25:18;;;;;;;8.93;1.30;;;;;;;12.44;78.01;100551.50;125761;1093;22761;-61
2021/06/13 04:27:55;;;;;;;7.55;1.20;;;;;;;12.47;77.37;100554.13;125700;1091;27367;-61
2021/06/13 04:30:27;;;;;;;7.20;1.20;;;;;;;12.47;77.50;100558.95;125692;1093;22777;-60
2021/06/13 04:32:59;;;;;;;5.97;1.27;;;;;;;12.50;76.97;100569.94;125825;1093;22867;-60
2021/06/13 04:35:31;;;;;;;8.15;1.30;;;;;;;12.52;76.74;100575.08;125767;1093;22803;-63
2021/06/13 04:38:03;;;;;;;6.15;1.30;;;;;;;12.53;76.64;100574.59;125768;1093;22803;-63
2021/06/13 04:40:35;;;;;;;8.60;1.30;;;;;;;12.56;77.08;100567.25;125670;1092;24480;-60
2021/06/13 04:43:06;;;;;;;9.55;1.10;;;;;;;12.58;76.06;100573.89;125715;1093;22773;-61
2021/06/13 04:45:38;;;;;;;9.70;2.00;;;;;;;12.61;75.91;100572.16;125715;1093;22794;-60
2021/06/13 04:48:10;;;;;;;11.00;1.30;;;;;;;12.64;76.11;100579.59;125728;1092;22804;-61
2021/06/13 04:50:44;;;;;;;11.77;1.23;;;;;;;12.66;76.70;100574.28;125464;1093;22810;-61
2021/06/13 04:53:47;;;;;;;8.43;1.50;;;;;;;12.64;75.99;100585.95;125759;1093;22777;-59
2021/06/13 04:56:26;;;;;;;6.47;1.10;;;;;;;12.67;74.99;100599.00;125697;1093;22796;-61
2021/06/13 04:58:57;;;;;;;9.07;1.70;;;;;;;12.72;75.54;100591.95;125801;1093;24586;-62
2021/06/13 05:01:31;;;;;;;7.10;1.20;;;;;;;12.77;75.16;100591.25;125701;1093;22803;-61
2021/06/13 05:04:06;;;;;;;13.25;1.35;;;;;;;12.77;73.58;100622.06;125740;1093;25880;-61
2021/06/13 05:06:41;;;;;;;12.60;1.60;;;;;;;12.78;75.40;100598.41;125786;1092;22803;-60
2021/06/13 05:09:13;;;;;;;11.80;1.80;;;;;;;12.77;75.36;100606.03;125745;1093;22828;-60
2021/06/13 05:11:46;;;;;;;8.45;1.35;;;;;;;12.77;75.70;100613.66;125722;1093;22800;-60
2021/06/13 05:14:17;;;;;;;10.00;1.20;;;;;;;12.80;75.18;100599.47;125769;1093;22770;-60
2021/06/13 05:16:51;;;;;;;9.00;1.37;;;;;;;12.86;75.11;100600.33;125725;1093;22776;-62
2021/06/13 05:19:23;;;;;;;8.95;1.28;;;;;;;12.91;74.71;100607.28;125825;1093;22854;-60
2021/06/13 05:21:55;;;;;;;5.95;1.00;;;;;;;12.93;72.77;100613.92;125723;1093;22809;-60
2021/06/13 05:24:28;;;;;;;6.27;1.30;;;;;;;12.93;73.65;100610.37;126016;1093;26359;-60
2021/06/13 05:27:00;;;;;;;11.70;2.03;;;;;;;12.96;72.88;100615.77;125784;1093;27217;-59
2021/06/13 05:29:32;;;;;;;10.90;1.40;;;;;;;13.03;72.72;100620.95;125977;1093;22750;-60
2021/06/13 05:32:07;;;;;;;8.00;1.10;;;;;;;13.09;72.03;100614.70;125632;1093;22823;-60
2021/06/13 05:34:39;;;;;;;17.15;1.30;;;;;;;13.06;72.24;100616.44;125899;1093;22764;-61
2021/06/13 05:37:11;;;;;;;8.40;1.50;;;;;;;13.04;72.93;100616.16;125866;1093;26251;-61
2021/06/13 05:39:43;;;;;;;10.23;1.80;;;;;;;13.02;72.30;100621.44;125771;1093;28934;-61
2021/06/13 05:42:14;;;;;;;10.95;1.60;;;;;;;12.98;72.65;100620.88;125797;1093;22806;-61
2021/06/13 05:44:48;;;;;;;7.50;1.50;;;;;;;12.98;73.06;100613.25;125826;1092;24439;-61
2021/06/13 05:47:19;;;;;;;9.33;1.30;;;;;;;13.01;73.49;100623.47;125695;1093;26724;-61
2021/06/13 05:49:51;;;;;;;11.55;1.50;;;;;;;13.03;72.96;100619.42;125736;1093;22784;-62
2021/06/13 05:52:22;;;;;;;8.45;1.60;;;;;;;13.02;72.18;100627.05;126218;1093;22781;-64
2021/06/13 05:54:57;;;;;;;9.57;1.40;;;;;;;13.05;73.40;100623.31;125721;1092;22935;-62
2021/06/13 05:57:32;;;;;;;10.23;1.40;;;;;;;13.09;73.86;100628.71;125982;1093;22790;-61
2021/06/13 06:00:08;;;;;;;12.90;1.80;;;;;;;13.08;73.42;100636.34;125712;1093;22832;-61
2021/06/13 06:02:40;;;;;;;10.90;1.50;;;;;;;13.09;73.75;100640.70;125927;1093;22779;-61
2021/06/13 06:05:16;;;;;;;7.95;1.60;;;;;;;13.08;73.50;100633.53;125771;1093;22832;-61
2021/06/13 06:07:47;;;;;;;11.60;2.00;;;;;;;13.10;73.90;100644.28;125733;1093;22814;-61
2021/06/13 06:10:30;;;;;;;10.43;1.90;;;;;;;13.10;73.80;100664.66;125679;1093;22938;-62
2021/06/13 06:13:04;;;;;;;10.60;1.50;;;;;;;13.12;73.63;100656.53;125782;1092;22774;-61
2021/06/13 06:15:37;;;;;;;12.50;1.70;;;;;;;13.19;73.74;100660.97;125810;1093;22857;-61
2021/06/13 06:18:09;;;;;;;12.15;1.80;;;;;;;13.27;73.63;100664.91;125827;1093;24464;-62
2021/06/13 06:20:41;;;;;;;9.17;1.60;;;;;;;13.33;72.76;100660.93;125691;1092;22930;-62
2021/06/13 06:23:15;;;;;;;12.75;1.90;;;;;;;13.36;72.89;100665.58;125704;1093;26249;-59
2021/06/13 06:25:47;;;;;;;9.03;1.47;;;;;;;13.43;72.67;100667.17;125751;1093;22935;-60
2021/06/13 06:28:20;;;;;;;6.70;1.27;;;;;;;13.52;72.36;100672.67;125886;1093;22774;-61
2021/06/13 06:30:52;;;;;;;8.70;1.30;;;;;;;13.55;70.94;100677.31;126395;1093;24502;-61
2021/06/13 06:33:30;;;;;;;8.97;1.47;;;;;;;13.54;71.89;100668.12;125627;1093;22804;-60
2021/06/13 06:36:06;;;;;;;11.05;1.70;;;;;;;13.59;69.91;100695.46;125658;1093;22810;-62
2021/06/13 06:38:38;;;;;;;7.53;1.20;;;;;;;13.66;70.72;100671.84;125681;1093;22840;-62
2021/06/13 06:41:10;;;;;;;9.65;1.20;;;;;;;13.72;69.46;100683.91;126357;1093;23181;-62
2021/06/13 06:43:42;;;;;;;7.50;1.10;;;;;;;13.70;70.39;100678.01;126204;1093;22781;-62
2021/06/13 06:46:14;;;;;;;14.05;1.30;;;;;;;13.77;67.41;100698.02;126397;1093;22784;-63
2021/06/13 06:48:48;;;;;;;6.77;1.00;;;;;;;13.75;66.20;100694.94;126459;1092;22790;-62
2021/06/13 06:51:20;;;;;;;15.50;1.30;;;;;;;13.71;67.97;100685.18;126193;1092;22788;-62
2021/06/13 06:53:51;;;;;;;9.60;1.55;;;;;;;13.78;68.99;100690.36;126349;1093;22812;-63
2021/06/13 06:56:22;;;;;;;7.03;1.10;;;;;;;13.91;68.60;100687.20;126181;1093;22784;-63
2021/06/13 06:58:55;;;;;;;8.80;1.67;;;;;;;14.00;67.16;100687.08;126262;1093;23320;-63
2021/06/13 07:01:27;;;;;;;7.53;1.13;;;;;;;14.04;66.47;100682.02;126132;1093;24426;-62
2021/06/13 07:03:58;;;;;;;5.10;1.10;;;;;;;14.14;67.79;100683.41;126204;1093;22944;-63
2021/06/13 07:06:30;;;;;;;9.25;1.30;;;;;;;14.25;66.38;100675.90;125870;1093;22820;-63
2021/06/13 07:09:02;;;;;;;6.40;1.20;;;;;;;14.26;66.16;100701.92;126064;1093;22935;-63
2021/06/13 07:11:34;;;;;;;7.60;1.10;;;;;;;14.22;65.61;100699.34;125987;1093;22839;-62
2021/06/13 07:14:06;;;;;;;6.57;0.83;;;;;;;14.18;64.94;100686.77;126268;1092;22924;-63
2021/06/13 07:16:38;;;;;;;8.25;0.90;;;;;;;14.17;63.74;100713.32;126379;1092;22803;-62
2021/06/13 07:19:11;;;;;;;5.70;0.85;;;;;;;14.16;64.09;100703.34;126213;1093;22746;-62
2021/06/13 07:21:44;;;;;;;8.85;1.25;;;;;;;14.13;64.76;100696.66;126278;1093;22807;-63
2021/06/13 07:24:16;;;;;;;10.17;1.10;;;;;;;14.16;64.06;100714.57;126289;1092;22775;-63
2021/06/13 07:26:48;;;;;;;10.70;1.10;;;;;;;14.13;64.50;100719.13;126273;1093;26338;-62
2021/06/13 07:29:20;;;;;;;8.27;1.00;;;;;;;14.12;64.05;100723.22;126076;1093;22802;-62
2021/06/13 07:31:52;;;;;;;8.10;0.90;;;;;;;14.09;65.44;100721.38;126111;1093;22839;-61
2021/06/13 07:34:23;;;;;;;9.17;1.17;;;;;;;14.09;65.01;100732.61;126032;1092;22773;-60
2021/06/13 07:36:55;;;;;;;7.00;1.10;;;;;;;14.11;65.22;100730.08;126194;1093;22733;-60
2021/06/13 07:39:26;;;;;;;6.07;0.80;;;;;;;14.12;65.50;100726.02;126096;1093;22800;-62
2021/06/13 07:41:59;;;;;;;7.93;1.20;;;;;;;14.13;64.75;100735.23;125911;1092;27310;-61
2021/06/13 07:44:31;;;;;;;15.30;1.50;;;;;;;14.11;62.85;100741.31;126068;1093;22788;-61
2021/06/13 07:47:04;;;;;;;10.40;1.20;;;;;;;14.10;64.34;100739.00;126039;1093;22800;-61
2021/06/13 07:49:36;;;;;;;9.53;1.20;;;;;;;14.20;63.38;100760.06;126236;1093;22811;-60
2021/06/13 07:52:09;;;;;;;10.50;1.20;;;;;;;14.24;61.93;100747.36;126208;1092;22759;-62
2021/06/13 07:54:41;;;;;;;8.40;1.30;;;;;;;14.22;62.56;100735.84;125546;1092;22780;-61
2021/06/13 07:57:16;;;;;;;6.43;1.20;;;;;;;14.22;61.12;100747.08;125744;1092;22807;-63
2021/06/13 07:59:48;;;;;;;6.03;1.03;;;;;;;14.21;62.27;100742.73;125508;1093;22777;-61
2021/06/13 08:02:19;;;;;;;11.30;1.30;;;;;;;14.18;62.34;100740.90;125486;1092;22774;-61
2021/06/13 08:04:55;;;;;;;7.80;1.30;;;;;;;14.16;62.91;100746.23;125630;1093;22774;-61
2021/06/13 08:07:27;;;;;;;11.10;1.05;;;;;;;14.22;63.30;100747.08;125444;1093;22786;-62
2021/06/13 08:09:59;;;;;;;10.17;1.07;;;;;;;14.27;62.51;100749.19;125548;1093;22862;-64
2021/06/13 08:12:31;;;;;;;8.20;1.20;;;;;;;14.36;61.48;100760.30;125081;1093;120217;-63
2021/06/13 08:15:03;;;;;;;10.05;1.30;;;;;;;14.52;62.73;100756.90;125411;1093;27668;-64
2021/06/13 08:17:34;;;;;;;8.30;0.80;;;;;;;14.62;61.81;100754.72;126113;1093;22804;-64
2021/06/13 08:20:07;;;;;;;11.25;1.20;;;;;;;14.71;61.63;100757.35;125543;1093;24439;-62
2021/06/13 08:22:40;;;;;;;8.37;1.47;;;;;;;14.77;61.24;100760.23;125537;1093;27141;-63
2021/06/13 08:25:14;;;;;;;8.27;1.17;;;;;;;14.76;59.66;100775.55;125946;1093;23294;-62
2021/06/13 08:27:46;;;;;;;8.87;1.10;;;;;;;14.70;60.49;100769.09;126906;1092;24442;-62
2021/06/13 08:30:20;;;;;;;9.20;1.05;;;;;;;14.73;61.57;100771.70;125511;1093;22809;-62
2021/06/13 08:32:55;;;;;;;5.83;0.93;;;;;;;14.82;61.16;100762.32;125949;1093;24429;-61
2021/06/13 08:35:27;;;;;;;5.75;0.80;;;;;;;14.85;60.26;100770.55;126326;1093;26014;-65
2021/06/13 08:38:02;;;;;;;9.27;0.93;;;;;;;14.94;60.78;100770.37;125521;1093;22777;-63
2021/06/13 08:40:35;;;;;;;7.25;0.85;;;;;;;15.11;60.17;100776.15;125514;1093;22793;-63
2021/06/13 08:43:07;;;;;;;6.00;1.20;;;;;;;15.11;60.72;100774.12;125722;1093;22773;-61
2021/06/13 08:45:39;;;;;;;7.27;1.00;;;;;;;15.00;60.19;100785.25;125674;1093;22807;-62
2021/06/13 08:48:14;;;;;;;8.35;1.10;;;;;;;14.89;60.78;100770.32;125480;1093;22789;-64
2021/06/13 08:50:47;;;;;;;5.50;0.90;;;;;;;14.84;60.66;100768.22;125858;1093;24586;-66
2021/06/13 08:53:18;;;;;;;8.47;0.90;;;;;;;14.82;61.14;100776.38;125823;1093;27192;-64
2021/06/13 08:55:50;;;;;;;11.60;1.10;;;;;;;14.84;60.96;100779.46;125631;1093;26265;-63
2021/06/13 08:58:22;;;;;;;5.50;1.00;;;;;;;14.84;60.40;100790.70;125550;1093;22818;-65
2021/06/13 09:00:53;;;;;;;10.65;1.65;;;;;;;14.86;60.77;100797.38;125600;1093;22864;-64
2021/06/13 09:03:25;;;;;;;8.75;1.05;;;;;;;14.92;60.04;100797.45;125439;1093;22789;-63
2021/06/13 09:05:58;;;;;;;13.50;1.10;;;;;;;14.95;59.37;100793.64;125531;1093;25852;-63
2021/06/13 09:08:36;;;;;;;10.60;0.87;;;;;;;14.88;58.90;100797.66;125812;1093;22782;-63
2021/06/13 09:11:11;;;;;;;8.40;1.35;;;;;;;14.79;59.40;100802.67;126611;1092;25851;-62
2021/06/13 09:13:45;;;;;;;10.10;1.00;;;;;;;14.74;59.91;100806.97;125692;1092;35450;-62
2021/06/13 09:16:17;;;;;;;7.20;1.00;;;;;;;14.73;59.07;100822.30;125684;1092;27332;-63
2021/06/13 09:18:49;;;;;;;7.90;0.90;;;;;;;14.69;57.63;100818.16;125548;1093;22800;-63
2021/06/13 09:21:36;;;;;;;16.60;1.10;;;;;;;14.68;58.32;100820.19;125501;1093;22938;-64
2021/06/13 09:24:22;;;;;;;5.35;0.70;;;;;;;14.70;57.44;100809.22;125720;1093;22798;-66
2021/06/13 09:26:55;;;;;;;6.35;1.20;;;;;;;14.74;57.56;100818.20;125653;1093;22933;-63
2021/06/13 09:29:26;;;;;;;8.10;0.90;;;;;;;14.80;57.08;100824.66;125542;1093;22903;-64
2021/06/13 09:32:07;;;;;;;8.70;0.90;;;;;;;14.90;57.07;100834.48;125578;1093;22782;-65
2021/06/13 09:34:41;;;;;;;5.20;0.80;;;;;;;14.95;56.69;100818.94;125854;1093;22809;-65
2021/06/13 09:37:14;;;;;;;3.50;0.65;;;;;;;14.98;55.96;100824.34;125547;1093;22764;-63
2021/06/13 09:39:46;;;;;;;9.10;1.10;;;;;;;15.05;57.04;100828.75;125820;1092;22773;-66
2021/06/13 09:42:17;;;;;;;5.50;0.70;;;;;;;15.19;57.07;100819.43;125749;1093;22785;-63
2021/06/13 09:45:01;;;;;;;7.05;0.70;;;;;;;15.35;55.20;100830.09;125722;1093;22824;-64
2021/06/13 09:47:32;;;;;;;4.95;0.60;;;;;;;15.47;53.09;100828.16;125903;1092;25954;-63
2021/06/13 09:50:04;;;;;;;7.75;0.95;;;;;;;15.50;53.89;100835.62;125516;1092;27226;-63
2021/06/13 09:52:37;;;;;;;8.77;0.70;;;;;;;15.57;54.40;100832.33;125954;1093;22754;-65
2021/06/13 09:55:17;;;;;;;4.50;0.70;;;;;;;15.57;53.70;100833.11;125731;1092;22779;-63
2021/06/13 09:58:09;;;;;;;7.98;0.85;;;;;;;15.53;53.30;100823.34;125944;1093;28368;-64
2021/06/13 10:00:41;;;;;;;4.65;0.70;;;;;;;15.53;52.87;100840.23;125827;1093;22800;-63
2021/06/13 10:03:26;;;;;;;6.85;0.80;;;;;;;15.47;54.96;100834.56;125702;1093;22867;-65
2021/06/13 10:06:00;;;;;;;5.50;0.75;;;;;;;15.53;55.07;100843.05;125615;1092;22829;-64
2021/06/13 10:08:32;;;;;;;11.40;0.90;;;;;;;15.53;55.27;100838.20;125761;1093;22806;-66
2021/06/13 10:11:04;;;;;;;7.15;0.90;;;;;;;15.58;55.22;100848.71;125591;1093;22937;-64
2021/06/13 10:13:53;;;;;;;6.07;0.83;;;;;;;15.59;54.41;100855.12;125510;1093;25504;-64
2021/06/13 10:16:47;;;;;;;6.35;0.70;;;;;;;15.57;54.35;100864.06;125693;1093;22810;-63
2021/06/13 10:19:21;;;;;;;6.03;0.60;;;;;;;15.55;54.55;100865.83;125588;1093;22811;-65
2021/06/13 10:21:55;;;;;;;9.80;1.00;;;;;;;15.53;55.08;100863.52;125640;1093;22807;-64
2021/06/13 10:24:28;;;;;;;6.30;0.70;;;;;;;15.53;54.92;100860.70;125770;1093;22798;-65
2021/06/13 10:27:01;;;;;;;8.60;1.00;;;;;;;15.60;54.63;100857.42;125551;1093;24483;-64
2021/06/13 10:29:35;;;;;;;8.80;0.70;;;;;;;15.63;54.96;100866.92;125552;1092;22801;-65
2021/06/13 10:32:10;;;;;;;7.50;0.70;;;;;;;15.61;54.58;100861.80;125619;1092;22806;-65
2021/06/13 10:34:46;;;;;;;5.80;0.70;;;;;;;15.59;54.65;100852.30;125896;1093;22809;-65
2021/06/13 10:37:21;;;;;;;7.35;0.65;;;;;;;15.56;54.71;100856.88;125798;1092;22880;-64
2021/06/13 10:39:55;;;;;;;5.65;0.70;;;;;;;15.54;54.97;100858.67;125702;1093;22779;-65
2021/06/13 10:42:29;;;;;;;3.00;0.65;;;;;;;15.54;55.04;100859.42;125709;1093;22800;-64
2021/06/13 10:45:00;;;;;;;7.20;0.90;;;;;;;15.49;55.10;100867.83;125653;1093;22785;-64
2021/06/13 10:47:36;;;;;;;6.10;0.70;;;;;;;15.41;55.43;100862.60;125559;1093;22774;-63
2021/06/13 10:50:11;;;;;;;5.90;0.70;;;;;;;15.41;55.65;100867.48;126655;1093;22928;-63
2021/06/13 10:53:02;;;;;;;5.20;0.60;;;;;;;15.43;55.80;100869.82;126791;1093;22779;-64
2021/06/13 10:55:50;;;;;;;9.60;0.75;;;;;;;15.43;55.19;100872.63;125696;1093;22779;-67
2021/06/13 10:58:52;;;;;;;6.90;0.70;;;;;;;15.43;54.60;100883.89;126050;1093;25861;-63
2021/06/13 11:01:28;;;;;;;2.95;0.45;;;;;;;15.35;54.61;100873.03;125887;1093;22773;-63
2021/06/13 11:04:05;;;;;;;3.95;0.55;;;;;;;15.36;53.85;100879.44;126205;1093;22931;-63
2021/06/13 11:06:47;;;;;;;6.63;0.40;;;;;;;15.32;54.09;100882.48;125783;1093;22786;-65
2021/06/13 11:09:19;;;;;;;7.60;1.00;;;;;;;15.22;53.26;100883.92;125770;1093;22806;-64
2021/06/13 11:11:55;;;;;;;4.27;0.63;;;;;;;15.11;53.56;100897.08;125630;1093;24448;-63
2021/06/13 11:14:28;;;;;;;6.50;0.80;;;;;;;15.05;54.60;100894.21;125603;1092;22938;-63
2021/06/13 11:17:01;;;;;;;7.40;0.60;;;;;;;15.06;53.77;100894.98;125713;1093;26681;-64
2021/06/13 11:19:34;;;;;;;6.25;0.95;;;;;;;15.07;53.87;100885.27;125793;1092;25858;-63
2021/06/13 11:22:36;;;;;;;3.60;0.80;;;;;;;15.12;53.62;100896.60;125839;1093;22810;-63
2021/06/13 11:25:20;;;;;;;4.60;0.70;;;;;;;15.20;53.56;100900.52;125696;1093;25793;-64
2021/06/13 11:28:13;;;;;;;3.50;0.60;;;;;;;15.31;55.48;100892.18;125965;1093;22780;-65
2021/06/13 11:30:47;;;;;;;5.45;0.85;;;;;;;15.49;55.06;100879.86;125709;1093;22780;-63
2021/06/13 11:33:37;;;;;;;6.50;0.80;;;;;;;15.63;54.84;100889.44;125834;1091;22861;-64
2021/06/13 11:36:29;;;;;;;5.35;0.70;;;;;;;15.74;54.31;100890.32;125691;1093;26025;-65
2021/06/13 11:39:23;;;;;;;6.93;0.60;;;;;;;15.74;53.39;100883.91;125731;1093;24427;-63
2021/06/13 11:42:08;;;;;;;9.10;1.05;;;;;;;15.64;53.58;100890.99;125539;1093;22877;-65
2021/06/13 11:44:45;;;;;;;5.65;0.60;;;;;;;15.51;53.80;100891.39;125582;1093;22780;-65
2021/06/13 11:47:35;;;;;;;4.70;0.75;;;;;;;15.43;53.57;100900.77;126525;1092;22776;-64